| time (UTC) | temp F | wind direction | speed MPH | gust MPH | rain 1hr in | rain 24hr in | rain mn in | humidity % | barometer mb |
| 20260507121022 | 55 | 320 | 3.0 | 6.0 | 0.00 | 0.29 | 0.05 | 78 | 1035.4 |
| 20260507120018 | 55 | 322 | 5.0 | 7.0 | 0.00 | 0.29 | 0.05 | 79 | 1035.2 |
| 20260507115054 | 55 | 327 | 3.0 | 7.0 | 0.00 | 0.29 | 0.05 | 82 | 1035.2 |
| 20260507114030 | 55 | 320 | 3.0 | 7.0 | 0.00 | 0.29 | 0.05 | 84 | 1035.1 |
| 20260507113026 | 55 | 328 | 3.0 | 6.0 | 0.00 | 0.29 | 0.05 | 85 | 1035.0 |
| 20260507112022 | 55 | 313 | 3.0 | 4.0 | 0.00 | 0.29 | 0.05 | 85 | 1035.0 |
| 20260507111019 | 55 | 326 | 1.0 | 3.0 | 0.00 | 0.29 | 0.05 | 85 | 1034.9 |
| 20260507110034 | 55 | 315 | 1.0 | 3.0 | 0.00 | 0.29 | 0.05 | 85 | 1035.0 |
| 20260507105030 | 55 | 4 | 1.0 | 3.0 | 0.00 | 0.29 | 0.05 | 85 | 1034.8 |
| 20260507104026 | 55 | 357 | 0.0 | 1.0 | 0.00 | 0.29 | 0.05 | 85 | 1034.6 |
| 20260507103021 | 55 | 347 | 2.0 | 2.0 | 0.00 | 0.29 | 0.05 | 85 | 1034.5 |
| 20260507102017 | 55 | 335 | 1.0 | 4.0 | 0.00 | 0.29 | 0.05 | 85 | 1034.6 |
| 20260507101034 | 55 | 307 | 1.0 | 3.0 | 0.00 | 0.29 | 0.05 | 86 | 1034.4 |
| 20260507100029 | 55 | 324 | 2.0 | 4.0 | 0.00 | 0.29 | 0.05 | 86 | 1034.5 |
| 20260507095025 | 55 | 348 | 2.0 | 4.0 | 0.00 | 0.29 | 0.05 | 86 | 1034.5 |
| 20260507094022 | 55 | 8 | 0.0 | 2.0 | 0.00 | 0.29 | 0.05 | 86 | 1034.3 |
| 20260507093017 | 55 | 3 | 2.0 | 3.0 | 0.00 | 0.29 | 0.05 | 86 | 1034.2 |
| 20260507092032 | 55 | 6 | 2.0 | 3.0 | 0.00 | 0.29 | 0.05 | 86 | 1034.3 |
| 20260507091028 | 55 | 341 | 1.0 | 2.0 | 0.00 | 0.29 | 0.05 | 85 | 1034.5 |
| 20260507090023 | 55 | 356 | 1.0 | 3.0 | 0.00 | 0.29 | 0.05 | 85 | 1034.4 |
| 20260507085019 | 55 | 355 | 1.0 | 2.0 | 0.00 | 0.29 | 0.05 | 85 | 1034.1 |
| 20260507084035 | 55 | 16 | 2.0 | 4.0 | 0.00 | 0.29 | 0.05 | 85 | 1034.2 |
| 20260507083031 | 55 | 8 | 2.0 | 6.0 | 0.00 | 0.29 | 0.05 | 85 | 1034.1 |
| 20260507082027 | 55 | 14 | 2.0 | 6.0 | 0.02 | 0.29 | 0.05 | 85 | 1033.9 |
| 20260507081024 | 56 | 22 | 3.0 | 6.0 | 0.02 | 0.29 | 0.05 | 85 | 1033.6 |
| 20260507080019 | 56 | 360 | 4.0 | 9.0 | 0.02 | 0.29 | 0.05 | 86 | 1033.4 |
| 20260507075015 | 56 | 12 | 3.0 | 7.0 | 0.02 | 0.29 | 0.05 | 86 | 1033.5 |
| 20260507074112 | 57 | 19 | 6.0 | 11.0 | 0.02 | 0.29 | 0.05 | 87 | 1033.2 |
| 20260507073028 | 57 | 26 | 3.0 | 7.0 | 0.01 | 0.28 | 0.04 | 87 | 1033.2 |
| 20260507072044 | 57 | 9 | 1.0 | 2.0 | 0.00 | 0.27 | 0.03 | 87 | 1033.2 |
| 20260507071020 | 57 | 344 | 1.0 | 3.0 | 0.00 | 0.27 | 0.03 | 87 | 1033.1 |
| 20260507070017 | 57 | 344 | 2.0 | 6.0 | 0.00 | 0.27 | 0.03 | 87 | 1033.2 |
| 20260507065032 | 57 | 331 | 3.0 | 7.0 | 0.00 | 0.27 | 0.03 | 87 | 1033.3 |
| 20260507064028 | 57 | 329 | 3.0 | 6.0 | 0.00 | 0.27 | 0.03 | 87 | 1033.3 |
| 20260507063024 | 57 | 333 | 3.0 | 7.0 | 0.00 | 0.27 | 0.03 | 87 | 1033.1 |
| 20260507062020 | 57 | 352 | 3.0 | 7.0 | 0.00 | 0.27 | 0.03 | 87 | 1033.2 |
| 20260507061017 | 58 | 350 | 1.0 | 6.0 | 0.01 | 0.27 | 0.03 | 86 | 1033.2 |
| 20260507060034 | 58 | 337 | 4.0 | 9.0 | 0.02 | 0.27 | 0.03 | 86 | 1033.1 |
| 20260507055029 | 58 | 343 | 5.0 | 11.0 | 0.03 | 0.27 | 0.03 | 86 | 1033.2 |
| 20260507054026 | 58 | 326 | 5.0 | 9.0 | 0.03 | 0.27 | 0.03 | 85 | 1033.4 |
| 20260507053042 | 59 | 352 | 6.0 | 14.0 | 0.03 | 0.27 | 0.03 | 84 | 1033.1 |
| 20260507052018 | 59 | 352 | 3.0 | 8.0 | 0.03 | 0.27 | 0.03 | 81 | 1033.0 |
| 20260507051034 | 60 | 329 | 6.0 | 13.0 | 0.02 | 0.26 | 0.02 | 79 | 1033.5 |
| 20260507050030 | 61 | 305 | 5.0 | 10.0 | 0.00 | 0.24 | 0.00 | 77 | 1033.6 |
| 20260507045027 | 62 | 327 | 6.0 | 11.0 | 0.00 | 0.24 | 0.00 | 75 | 1033.2 |
| 20260507044043 | 63 | 346 | 5.0 | 14.0 | 0.00 | 0.24 | 0.00 | 73 | 1033.1 |
| 20260507043019 | 64 | 319 | 4.0 | 7.0 | 0.00 | 0.24 | 0.00 | 72 | 1033.4 |
| 20260507042035 | 64 | 323 | 2.0 | 6.0 | 0.00 | 0.24 | 0.00 | 73 | 1033.3 |
| 20260507041052 | 64 | 316 | 3.0 | 7.0 | 0.00 | 0.24 | 0.00 | 72 | 1033.0 |
| 20260507040027 | 64 | 315 | 4.0 | 10.0 | 0.00 | 0.24 | 0.24 | 72 | 1032.8 |
| 20260507035023 | 64 | 324 | 4.0 | 8.0 | 0.00 | 0.24 | 0.24 | 72 | 1032.7 |
| 20260507034018 | 65 | 356 | 4.0 | 7.0 | 0.00 | 0.24 | 0.24 | 73 | 1032.9 |
| 20260507033035 | 65 | 332 | 6.0 | 14.0 | 0.00 | 0.24 | 0.24 | 76 | 1032.9 |
| 20260507032031 | 66 | 321 | 5.0 | 9.0 | 0.00 | 0.24 | 0.24 | 76 | 1032.7 |
| 20260507031047 | 66 | 336 | 3.0 | 6.0 | 0.00 | 0.24 | 0.24 | 75 | 1032.3 |
| 20260507030023 | 66 | 329 | 2.0 | 4.0 | 0.00 | 0.24 | 0.24 | 74 | 1032.3 |
| 20260507025021 | 67 | 302 | 3.0 | 7.0 | 0.00 | 0.24 | 0.24 | 74 | 1032.4 |
| 20260507024036 | 67 | 327 | 4.0 | 8.0 | 0.00 | 0.24 | 0.24 | 75 | 1032.2 |
| 20260507023032 | 67 | 333 | 3.0 | 7.0 | 0.00 | 0.24 | 0.24 | 74 | 1032.3 |
| 20260507022028 | 68 | 311 | 4.0 | 8.0 | 0.00 | 0.24 | 0.24 | 74 | 1032.0 |
| 20260507021024 | 68 | 312 | 3.0 | 7.0 | 0.00 | 0.24 | 0.24 | 74 | 1032.0 |
| 20260507020021 | 68 | 343 | 6.0 | 13.0 | 0.00 | 0.24 | 0.24 | 74 | 1031.6 |
| 20260507015018 | 69 | 317 | 6.0 | 11.0 | 0.00 | 0.24 | 0.24 | 76 | 1031.7 |
| 20260507014033 | 69 | 312 | 4.0 | 10.0 | 0.00 | 0.24 | 0.24 | 77 | 1031.9 |
| 20260507013030 | 69 | 210 | 1.0 | 2.0 | 0.00 | 0.24 | 0.24 | 77 | 1031.9 |
| 20260507012026 | 70 | 0.0 | 0.0 | 0.00 | 0.24 | 0.24 | 77 | 1031.8 | |
| 20260507011022 | 70 | 218 | 2.0 | 4.0 | 0.00 | 0.24 | 0.24 | 77 | 1032.0 |
| 20260507010019 | 70 | 236 | 2.0 | 3.0 | 0.00 | 0.24 | 0.24 | 77 | 1032.0 |
| 20260507005034 | 70 | 227 | 1.0 | 3.0 | 0.00 | 0.24 | 0.24 | 76 | 1031.6 |
| 20260507004030 | 70 | 210 | 1.0 | 3.0 | 0.00 | 0.24 | 0.24 | 76 | 1031.6 |
| 20260507003026 | 70 | 215 | 0.0 | 2.0 | 0.00 | 0.24 | 0.24 | 76 | 1031.5 |
| 20260507002023 | 70 | 217 | 1.0 | 2.0 | 0.00 | 0.24 | 0.24 | 76 | 1031.4 |
| 20260507001059 | 70 | 234 | 1.0 | 2.0 | 0.00 | 0.24 | 0.24 | 75 | 1031.5 |
| 20260507000015 | 70 | 241 | 1.0 | 3.0 | 0.00 | 0.24 | 0.24 | 75 | 1031.6 |
| 20260506235032 | 70 | 229 | 1.0 | 3.0 | 0.00 | 0.24 | 0.24 | 75 | 1031.4 |
| 20260506234027 | 70 | 219 | 3.0 | 7.0 | 0.00 | 0.24 | 0.24 | 74 | 1031.2 |
| 20260506233043 | 71 | 201 | 1.0 | 6.0 | 0.00 | 0.24 | 0.24 | 74 | 1031.2 |
| 20260506232020 | 71 | 203 | 5.0 | 10.0 | 0.00 | 0.24 | 0.24 | 74 | 1031.0 |
| 20260506231035 | 71 | 179 | 4.0 | 8.0 | 0.00 | 0.24 | 0.24 | 73 | 1030.7 |
| 20260506230051 | 71 | 191 | 4.0 | 10.0 | 0.00 | 0.24 | 0.24 | 73 | 1030.7 |
| 20260506225027 | 71 | 183 | 4.0 | 8.0 | 0.00 | 0.24 | 0.24 | 73 | 1031.0 |
| 20260506224023 | 72 | 196 | 4.0 | 11.0 | 0.00 | 0.24 | 0.24 | 72 | 1030.8 |
| 20260506223039 | 72 | 178 | 4.0 | 6.0 | 0.00 | 0.24 | 0.24 | 72 | 1030.7 |
| 20260506222016 | 72 | 189 | 4.0 | 7.0 | 0.00 | 0.24 | 0.24 | 71 | 1030.8 |
| 20260506221032 | 72 | 215 | 4.0 | 6.0 | 0.00 | 0.24 | 0.24 | 71 | 1030.8 |
| 20260506220028 | 73 | 179 | 4.0 | 10.0 | 0.00 | 0.24 | 0.24 | 70 | 1030.9 |
| 20260506215024 | 73 | 205 | 5.0 | 11.0 | 0.00 | 0.24 | 0.24 | 70 | 1030.9 |
| 20260506214021 | 73 | 221 | 5.0 | 11.0 | 0.00 | 0.24 | 0.24 | 70 | 1030.8 |
| 20260506213017 | 74 | 216 | 7.0 | 14.0 | 0.00 | 0.24 | 0.24 | 69 | 1030.6 |
| 20260506212034 | 74 | 223 | 5.0 | 11.0 | 0.00 | 0.24 | 0.24 | 69 | 1030.5 |
| 20260506211031 | 74 | 216 | 4.0 | 13.0 | 0.00 | 0.24 | 0.24 | 70 | 1030.5 |
| 20260506210026 | 74 | 208 | 6.0 | 16.0 | 0.00 | 0.24 | 0.24 | 70 | 1030.4 |
| 20260506205023 | 74 | 203 | 7.0 | 14.0 | 0.00 | 0.24 | 0.24 | 70 | 1030.5 |
| 20260506204019 | 73 | 204 | 8.0 | 16.0 | 0.00 | 0.24 | 0.24 | 70 | 1030.1 |
| 20260506203015 | 73 | 220 | 5.0 | 11.0 | 0.00 | 0.24 | 0.24 | 70 | 1030.5 |
| 20260506202031 | 73 | 213 | 6.0 | 22.0 | 0.00 | 0.24 | 0.24 | 70 | 1030.4 |
| 20260506201027 | 73 | 216 | 9.0 | 18.0 | 0.00 | 0.24 | 0.24 | 71 | 1030.5 |
| 20260506200024 | 73 | 225 | 8.0 | 18.0 | 0.00 | 0.24 | 0.24 | 70 | 1030.5 |
| 20260506195021 | 73 | 204 | 9.0 | 19.0 | 0.00 | 0.24 | 0.24 | 70 | 1030.5 |
| 20260506194016 | 73 | 204 | 8.0 | 17.0 | 0.00 | 0.24 | 0.24 | 70 | 1030.4 |
| 20260506193033 | 73 | 225 | 9.0 | 18.0 | 0.00 | 0.24 | 0.24 | 70 | 1030.8 |
| 20260506192029 | 73 | 217 | 6.0 | 15.0 | 0.00 | 0.24 | 0.24 | 70 | 1030.7 |
| 20260506191027 | 73 | 214 | 8.0 | 18.0 | 0.00 | 0.24 | 0.24 | 71 | 1030.8 |
| 20260506190022 | 73 | 215 | 6.0 | 14.0 | 0.00 | 0.24 | 0.24 | 72 | 1030.8 |
| 20260506185019 | 72 | 227 | 5.0 | 11.0 | 0.00 | 0.24 | 0.24 | 72 | 1030.8 |
| 20260506184035 | 72 | 210 | 6.0 | 17.0 | 0.00 | 0.24 | 0.24 | 73 | 1030.9 |
| 20260506183031 | 71 | 199 | 8.0 | 16.0 | 0.00 | 0.24 | 0.24 | 73 | 1031.1 |
| 20260506182028 | 71 | 216 | 9.0 | 24.0 | 0.00 | 0.24 | 0.24 | 74 | 1031.0 |
| 20260506181024 | 71 | 197 | 7.0 | 15.0 | 0.00 | 0.24 | 0.24 | 75 | 1031.3 |
| 20260506180021 | 70 | 211 | 8.0 | 21.0 | 0.00 | 0.24 | 0.24 | 77 | 1031.3 |
| 20260506175036 | 69 | 232 | 11.0 | 22.0 | 0.00 | 0.24 | 0.24 | 77 | 1031.6 |
| 20260506174032 | 68 | 219 | 10.0 | 21.0 | 0.00 | 0.24 | 0.24 | 78 | 1031.6 |
| 20260506173028 | 67 | 205 | 7.0 | 15.0 | 0.00 | 0.24 | 0.24 | 80 | 1031.5 |
| 20260506172024 | 67 | 220 | 10.0 | 21.0 | 0.00 | 0.24 | 0.24 | 80 | 1031.6 |
| 20260506171040 | 67 | 226 | 11.0 | 24.0 | 0.00 | 0.24 | 0.24 | 80 | 1031.8 |
| 20260506170017 | 67 | 212 | 9.0 | 17.0 | 0.00 | 0.24 | 0.24 | 82 | 1031.8 |
| 20260506165033 | 67 | 208 | 7.0 | 15.0 | 0.00 | 0.24 | 0.24 | 83 | 1031.7 |
| 20260506164028 | 66 | 225 | 9.0 | 21.0 | 0.00 | 0.24 | 0.24 | 84 | 1031.9 |
| 20260506163026 | 66 | 197 | 11.0 | 21.0 | 0.00 | 0.24 | 0.24 | 84 | 1032.0 |
| 20260506162041 | 66 | 198 | 6.0 | 15.0 | 0.01 | 0.24 | 0.24 | 85 | 1031.8 |
| 20260506161017 | 66 | 194 | 7.0 | 15.0 | 0.03 | 0.24 | 0.24 | 86 | 1031.9 |
| 20260506160034 | 65 | 229 | 4.0 | 11.0 | 0.04 | 0.24 | 0.24 | 86 | 1032.0 |
| 20260506155030 | 64 | 198 | 7.0 | 18.0 | 0.04 | 0.24 | 0.24 | 87 | 1032.2 |
| 20260506154047 | 64 | 202 | 5.0 | 17.0 | 0.04 | 0.24 | 0.24 | 87 | 1032.4 |
| 20260506153022 | 63 | 203 | 6.0 | 15.0 | 0.06 | 0.24 | 0.24 | 87 | 1032.2 |
| 20260506152019 | 63 | 195 | 6.0 | 15.0 | 0.06 | 0.23 | 0.23 | 87 | 1032.3 |
| 20260506151054 | 63 | 196 | 7.0 | 14.0 | 0.07 | 0.21 | 0.21 | 87 | 1032.9 |
| 20260506150030 | 63 | 211 | 5.0 | 13.0 | 0.09 | 0.20 | 0.20 | 87 | 1033.0 |
| 20260506145026 | 63 | 216 | 5.0 | 10.0 | 0.11 | 0.20 | 0.20 | 87 | 1032.9 |
| 20260506144021 | 62 | 190 | 3.0 | 8.0 | 0.13 | 0.20 | 0.20 | 86 | 1032.9 |
| 20260506143018 | 62 | 202 | 6.0 | 15.0 | 0.16 | 0.19 | 0.19 | 86 | 1033.1 |
| 20260506142034 | 63 | 199 | 4.0 | 10.0 | 0.16 | 0.17 | 0.17 | 85 | 1032.8 |
| 20260506141030 | 63 | 201 | 5.0 | 10.0 | 0.13 | 0.14 | 0.14 | 84 | 1032.9 |
| 20260506140027 | 63 | 180 | 5.0 | 13.0 | 0.11 | 0.11 | 0.11 | 83 | 1033.0 |
| 20260506135023 | 64 | 195 | 4.0 | 9.0 | 0.09 | 0.09 | 0.09 | 82 | 1033.1 |
| 20260506134019 | 64 | 207 | 4.0 | 8.0 | 0.06 | 0.06 | 0.06 | 81 | 1033.3 |
| 20260506133016 | 65 | 204 | 4.0 | 13.0 | 0.03 | 0.03 | 0.03 | 80 | 1033.4 |
| 20260506132032 | 65 | 200 | 5.0 | 11.0 | 0.01 | 0.01 | 0.01 | 79 | 1033.3 |
| 20260506131028 | 65 | 194 | 5.0 | 10.0 | 0.01 | 0.01 | 0.01 | 79 | 1033.0 |
| 20260506130024 | 65 | 210 | 4.0 | 10.0 | 0.01 | 0.01 | 0.01 | 78 | 1032.9 |
| 20260506125040 | 65 | 211 | 5.0 | 14.0 | 0.00 | 0.00 | 0.00 | 77 | 1032.6 |
| 20260506124017 | 65 | 180 | 6.0 | 15.0 | 0.00 | 0.00 | 0.00 | 76 | 1032.6 |
| 20260506123033 | 66 | 205 | 7.0 | 14.0 | 0.00 | 0.00 | 0.00 | 75 | 1032.8 |
| 20260506122030 | 66 | 220 | 6.0 | 10.0 | 0.00 | 0.00 | 0.00 | 74 | 1032.9 |